Time;durP1;ratioP1;P1;durP2;ratioP2;P2;SDS_P1;SDS_P2;PMS_P1;PMS_P2;Temp;Humidity;BMP_temperature;BMP_pressure;BME280_temperature;BME280_humidity;BME280_pressure;Samples;Min_cycle;Max_cycle;Signal;HPM_P1;HPM_P2
2023/04/19 00:01:49;;;;;;;17.83;12.13;;;11.30;99.90;;;;;;5053588;28;20461;-65
2023/04/19 00:04:15;;;;;;;14.13;11.05;;;11.30;99.90;;;;;;5053321;28;20028;-64
2023/04/19 00:06:41;;;;;;;14.55;11.38;;;11.30;99.90;;;;;;5053318;28;20110;-64
2023/04/19 00:09:07;;;;;;;13.75;11.07;;;11.30;99.90;;;;;;5051866;28;20331;-64
2023/04/19 00:11:33;;;;;;;15.20;11.77;;;11.30;99.90;;;;;;5052358;28;20033;-64
2023/04/19 00:13:59;;;;;;;15.68;11.98;;;11.20;99.90;;;;;;5051958;28;20029;-64
2023/04/19 00:16:25;;;;;;;16.00;12.07;;;11.20;99.90;;;;;;5052245;28;20470;-63
2023/04/19 00:18:50;;;;;;;17.42;12.55;;;11.20;99.90;;;;;;5051910;28;20037;-61
2023/04/19 00:21:16;;;;;;;14.07;11.48;;;11.20;99.90;;;;;;5050950;28;20025;-63
2023/04/19 00:23:41;;;;;;;24.05;13.95;;;11.20;99.90;;;;;;5052560;28;20029;-63
2023/04/19 00:26:07;;;;;;;14.65;11.40;;;11.10;99.90;;;;;;5051120;28;20025;-63
2023/04/19 00:28:33;;;;;;;15.77;11.90;;;11.10;99.90;;;;;;5052351;28;20515;-62
2023/04/19 00:30:59;;;;;;;17.75;13.50;;;11.10;99.90;;;;;;5051620;28;20041;-64
2023/04/19 00:33:25;;;;;;;16.10;12.40;;;11.10;99.90;;;;;;5051721;28;20079;-61
2023/04/19 00:35:50;;;;;;;15.45;11.55;;;11.10;99.90;;;;;;5051385;28;20060;-63
2023/04/19 00:38:16;;;;;;;17.27;12.13;;;11.00;99.90;;;;;;5051978;28;20432;-62
2023/04/19 00:40:42;;;;;;;18.60;12.27;;;11.00;99.90;;;;;;5051890;28;20032;-63
2023/04/19 00:43:07;;;;;;;17.05;12.75;;;11.00;99.90;;;;;;5051414;28;20107;-64
2023/04/19 00:45:35;;;;;;;15.63;12.90;;;11.00;99.90;;;;;;5051956;28;20049;-64
2023/04/19 00:48:01;;;;;;;17.30;12.20;;;11.00;99.90;;;;;;5054659;28;20032;-62
2023/04/19 00:50:27;;;;;;;16.35;13.65;;;10.90;99.90;;;;;;5055593;28;20025;-62
2023/04/19 00:52:54;;;;;;;16.65;12.90;;;10.90;99.90;;;;;;5055203;28;20040;-64
2023/04/19 00:55:21;;;;;;;17.05;12.85;;;10.90;99.90;;;;;;5055426;28;20021;-63
2023/04/19 00:57:47;;;;;;;18.05;13.45;;;10.90;99.90;;;;;;5055531;28;20024;-64
2023/04/19 01:00:13;;;;;;;15.50;12.73;;;10.80;99.90;;;;;;5055057;28;20040;-63
2023/04/19 01:02:39;;;;;;;17.70;12.18;;;10.80;99.90;;;;;;5055480;28;20025;-63
2023/04/19 01:05:06;;;;;;;15.35;12.45;;;10.80;99.90;;;;;;5055022;28;20032;-63
2023/04/19 01:07:33;;;;;;;17.55;12.38;;;10.70;99.90;;;;;;5054876;28;20472;-64
2023/04/19 01:09:59;;;;;;;22.38;13.38;;;10.70;99.90;;;;;;5054742;28;20043;-63
2023/04/19 01:12:25;;;;;;;14.88;11.98;;;10.70;99.90;;;;;;5055401;28;20033;-64
2023/04/19 01:14:51;;;;;;;18.30;12.52;;;10.70;99.90;;;;;;5054941;28;20037;-63
2023/04/19 01:17:17;;;;;;;19.55;13.57;;;10.60;99.90;;;;;;5054501;28;20058;-63
2023/04/19 01:19:43;;;;;;;18.13;13.35;;;10.60;99.90;;;;;;5055061;28;20040;-63
2023/04/19 01:22:13;;;;;;;17.75;13.20;;;10.60;99.90;;;;;;5054630;28;20381;-63
2023/04/19 01:24:39;;;;;;;19.70;13.55;;;10.50;99.90;;;;;;5054873;28;20036;-63
2023/04/19 01:27:04;;;;;;;20.38;13.95;;;10.50;99.90;;;;;;5054571;28;20048;-63
2023/04/19 01:29:30;;;;;;;18.98;14.35;;;10.40;99.90;;;;;;5054542;28;20048;-63
2023/04/19 01:31:56;;;;;;;20.73;14.70;;;10.40;99.90;;;;;;5054567;28;20378;-62
2023/04/19 01:34:22;;;;;;;22.08;14.70;;;10.40;99.90;;;;;;5055019;28;20025;-63
2023/04/19 01:36:47;;;;;;;19.77;13.68;;;10.40;99.90;;;;;;5055831;28;20335;-63
2023/04/19 01:39:13;;;;;;;19.13;14.85;;;10.40;99.90;;;;;;5058298;28;20103;-63
2023/04/19 01:41:39;;;;;;;20.27;14.77;;;10.40;99.90;;;;;;5058819;28;20123;-63
2023/04/19 01:44:05;;;;;;;20.27;15.88;;;10.30;99.90;;;;;;5059640;28;20049;-64
2023/04/19 01:46:30;;;;;;;21.52;15.52;;;10.30;99.90;;;;;;5058690;28;20021;-62
2023/04/19 01:48:56;;;;;;;20.02;15.07;;;10.30;99.90;;;;;;5055990;28;20068;-64
2023/04/19 01:51:21;;;;;;;19.58;15.25;;;10.30;99.90;;;;;;5054613;28;20385;-62
2023/04/19 01:53:52;;;;;;;20.67;15.50;;;10.20;99.90;;;;;;5054307;28;20021;-63
2023/04/19 01:56:18;;;;;;;21.98;15.90;;;10.20;99.90;;;;;;5054028;28;20033;-63
2023/04/19 01:58:44;;;;;;;23.60;15.55;;;10.20;99.90;;;;;;5052735;28;20043;-63
2023/04/19 02:01:11;;;;;;;21.77;16.02;;;10.20;99.90;;;;;;5053858;28;20400;-63
2023/04/19 02:03:38;;;;;;;21.70;16.27;;;10.20;99.90;;;;;;5054462;28;20115;-63
2023/04/19 02:06:04;;;;;;;28.13;17.50;;;10.20;99.90;;;;;;5053789;28;20124;-63
2023/04/19 02:08:29;;;;;;;25.23;17.33;;;10.10;99.90;;;;;;5054187;28;20529;-63
2023/04/19 02:10:55;;;;;;;21.80;16.48;;;10.10;99.90;;;;;;5054159;28;20461;-63
2023/04/19 02:13:32;;;;;;;25.55;17.73;;;10.10;99.90;;;;;;5053315;28;20056;-63
2023/04/19 02:16:00;;;;;;;22.90;16.88;;;10.10;99.90;;;;;;5052522;28;20032;-64
2023/04/19 02:18:26;;;;;;;28.17;17.92;;;10.10;99.90;;;;;;5053922;28;20032;-63
2023/04/19 02:20:51;;;;;;;26.13;17.40;;;10.10;99.90;;;;;;5053218;28;20025;-64
2023/04/19 02:23:17;;;;;;;23.25;18.02;;;10.10;99.90;;;;;;5053549;28;20028;-64
2023/04/19 02:25:42;;;;;;;24.05;16.95;;;10.10;99.90;;;;;;5053526;28;20029;-63
2023/04/19 02:28:08;;;;;;;29.08;18.20;;;10.10;99.90;;;;;;5053166;28;20175;-63
2023/04/19 02:30:35;;;;;;;23.67;18.33;;;10.10;99.90;;;;;;5053768;28;20036;-62
2023/04/19 02:33:01;;;;;;;27.17;18.42;;;10.20;99.90;;;;;;5053110;28;20104;-63
2023/04/19 02:35:27;;;;;;;25.92;17.90;;;10.10;99.90;;;;;;5054077;28;20087;-62
2023/04/19 02:37:52;;;;;;;25.25;17.95;;;10.20;99.90;;;;;;5053532;28;20462;-62
2023/04/19 02:40:18;;;;;;;24.20;17.35;;;10.20;99.90;;;;;;5052845;28;20043;-63
2023/04/19 02:42:44;;;;;;;25.50;18.10;;;10.20;99.90;;;;;;5053445;28;20500;-63
2023/04/19 02:45:10;;;;;;;26.08;18.80;;;10.20;99.90;;;;;;5052553;28;20053;-63
2023/04/19 02:47:35;;;;;;;24.63;18.40;;;10.20;99.90;;;;;;5053698;28;20021;-63
2023/04/19 02:50:01;;;;;;;26.25;19.02;;;10.30;99.90;;;;;;5051725;28;20040;-64
2023/04/19 02:52:27;;;;;;;26.35;18.55;;;10.30;99.90;;;;;;5053451;28;20036;-63
2023/04/19 02:54:52;;;;;;;25.90;18.65;;;10.30;99.90;;;;;;5053385;28;20108;-63
2023/04/19 02:57:18;;;;;;;25.27;18.52;;;10.30;99.90;;;;;;5057523;28;20486;-63
2023/04/19 02:59:44;;;;;;;23.80;17.48;;;10.30;99.90;;;;;;5056678;28;20040;-63
2023/04/19 03:02:09;;;;;;;24.48;18.45;;;10.30;99.90;;;;;;5055246;28;20466;-64
2023/04/19 03:04:35;;;;;;;27.77;18.92;;;10.30;99.90;;;;;;5053933;28;20056;-63
2023/04/19 03:07:01;;;;;;;24.40;17.85;;;10.40;99.90;;;;;;5053213;28;20021;-63
2023/04/19 03:09:26;;;;;;;29.17;20.48;;;10.40;99.90;;;;;;5052990;28;20029;-63
2023/04/19 03:11:52;;;;;;;24.85;19.63;;;10.40;99.90;;;;;;5053002;28;20029;-63
2023/04/19 03:14:18;;;;;;;25.48;18.55;;;10.40;99.90;;;;;;5052609;28;20106;-64
2023/04/19 03:16:43;;;;;;;25.50;19.48;;;10.40;99.90;;;;;;5052925;28;20070;-63
2023/04/19 03:19:09;;;;;;;25.15;19.13;;;10.40;99.90;;;;;;5052522;28;20028;-64
2023/04/19 03:21:35;;;;;;;25.92;18.92;;;10.40;99.90;;;;;;5052874;28;20078;-63
2023/04/19 03:24:01;;;;;;;26.05;20.05;;;10.40;99.90;;;;;;5052592;28;20029;-63
2023/04/19 03:26:26;;;;;;;30.08;21.55;;;10.40;99.90;;;;;;5052703;28;20432;-63
2023/04/19 03:28:52;;;;;;;29.23;20.35;;;10.40;99.90;;;;;;5052911;28;20029;-63
2023/04/19 03:31:17;;;;;;;29.92;20.77;;;10.40;99.90;;;;;;5052066;28;20029;-63
2023/04/19 03:33:43;;;;;;;28.73;19.70;;;10.40;99.90;;;;;;5052537;28;20082;-63
2023/04/19 03:36:09;;;;;;;27.80;20.35;;;10.40;99.90;;;;;;5052065;28;20025;-63
2023/04/19 03:38:35;;;;;;;27.60;19.67;;;10.40;99.90;;;;;;5052759;28;20047;-63
2023/04/19 03:41:01;;;;;;;27.10;19.50;;;10.40;99.90;;;;;;5051488;28;20116;-63
2023/04/19 03:43:27;;;;;;;30.30;20.20;;;10.40;99.90;;;;;;5051761;28;20060;-62
2023/04/19 03:45:52;;;;;;;31.27;21.80;;;10.40;99.90;;;;;;5052772;28;20037;-62
2023/04/19 03:48:18;;;;;;;29.83;21.20;;;10.40;99.90;;;;;;5051813;28;20021;-62
2023/04/19 03:50:44;;;;;;;28.33;20.55;;;10.40;99.90;;;;;;5052477;28;20043;-62
2023/04/19 03:53:09;;;;;;;27.52;22.15;;;10.40;99.90;;;;;;5052134;28;20021;-63
2023/04/19 03:55:35;;;;;;;30.13;21.55;;;10.40;99.90;;;;;;5051064;28;20025;-62
2023/04/19 03:58:00;;;;;;;26.77;21.85;;;10.40;99.90;;;;;;5052179;28;20025;-63
2023/04/19 04:00:26;;;;;;;30.83;22.65;;;10.40;99.90;;;;;;5052114;28;20029;-63
2023/04/19 04:02:52;;;;;;;27.60;21.42;;;10.40;99.90;;;;;;5052437;28;20037;-63
2023/04/19 04:05:18;;;;;;;35.03;23.95;;;10.40;99.90;;;;;;5052059;28;20033;-62
2023/04/19 04:07:43;;;;;;;30.98;24.02;;;10.40;99.90;;;;;;5052427;28;20051;-62
2023/04/19 04:10:09;;;;;;;33.53;24.90;;;10.40;99.90;;;;;;5051909;28;20417;-63
2023/04/19 04:12:35;;;;;;;33.00;24.23;;;10.40;99.90;;;;;;5052278;28;20025;-62
2023/04/19 04:15:01;;;;;;;30.75;23.48;;;10.40;99.90;;;;;;5052318;28;20025;-62
2023/04/19 04:17:26;;;;;;;34.63;24.98;;;10.40;99.90;;;;;;5051931;28;20033;-62
2023/04/19 04:19:52;;;;;;;35.88;25.08;;;10.40;99.90;;;;;;5052320;28;20457;-62
2023/04/19 04:22:17;;;;;;;34.03;24.80;;;10.40;99.90;;;;;;5053496;28;20025;-62
2023/04/19 04:24:43;;;;;;;31.63;24.77;;;10.40;99.90;;;;;;5055914;28;20029;-62
2023/04/19 04:27:09;;;;;;;34.80;24.80;;;10.40;99.90;;;;;;5055724;28;20029;-63
2023/04/19 04:29:36;;;;;;;30.52;24.20;;;10.40;99.90;;;;;;5055945;28;20033;-63
2023/04/19 04:32:04;;;;;;;38.50;25.60;;;10.40;99.90;;;;;;5055915;28;20033;-62
2023/04/19 04:34:31;;;;;;;31.75;25.15;;;10.40;99.90;;;;;;5055207;28;20465;-64
2023/04/19 04:36:57;;;;;;;38.17;25.45;;;10.40;99.90;;;;;;5055791;28;20025;-63
2023/04/19 04:39:23;;;;;;;34.92;24.83;;;10.50;99.90;;;;;;5055185;28;20536;-63
2023/04/19 04:41:50;;;;;;;31.42;24.27;;;10.50;99.90;;;;;;5055637;28;20031;-62
2023/04/19 04:44:16;;;;;;;32.58;24.08;;;10.50;99.90;;;;;;5055166;28;20052;-63
2023/04/19 04:46:41;;;;;;;34.30;24.73;;;10.50;99.90;;;;;;5055418;28;20033;-62
2023/04/19 04:49:07;;;;;;;34.47;25.13;;;10.50;99.90;;;;;;5055572;28;20032;-63
2023/04/19 04:51:33;;;;;;;35.53;25.52;;;10.50;99.90;;;;;;5055314;28;20078;-63
2023/04/19 04:53:59;;;;;;;33.03;23.88;;;10.50;99.90;;;;;;5055445;28;20491;-63
2023/04/19 04:56:25;;;;;;;33.42;24.27;;;10.50;99.90;;;;;;5054951;28;20104;-62
2023/04/19 04:58:51;;;;;;;33.20;24.70;;;10.50;99.90;;;;;;5055412;28;20381;-63
2023/04/19 05:01:18;;;;;;;28.88;22.50;;;10.50;99.90;;;;;;5055063;28;20025;-62
2023/04/19 05:03:44;;;;;;;30.67;22.70;;;10.50;99.90;;;;;;5055314;28;20035;-62
2023/04/19 05:06:10;;;;;;;31.92;24.00;;;10.50;99.90;;;;;;5054990;28;20104;-67
2023/04/19 05:08:35;;;;;;;30.30;23.88;;;10.50;99.90;;;;;;5054376;28;20128;-62
2023/04/19 05:11:01;;;;;;;35.97;23.90;;;10.50;99.90;;;;;;5054881;28;20099;-63
2023/04/19 05:13:27;;;;;;;31.33;23.48;;;10.50;99.90;;;;;;5054663;28;20029;-62
2023/04/19 05:15:53;;;;;;;30.23;22.63;;;10.50;99.90;;;;;;5055021;28;20031;-62
2023/04/19 05:18:18;;;;;;;35.30;23.30;;;10.50;99.90;;;;;;5054674;28;20029;-62
2023/04/19 05:20:45;;;;;;;28.70;22.15;;;10.50;99.90;;;;;;5055217;28;20040;-62
2023/04/19 05:23:11;;;;;;;35.35;23.30;;;10.50;99.90;;;;;;5054845;28;20461;-66
2023/04/19 05:25:37;;;;;;;31.92;23.98;;;10.50;99.90;;;;;;5055272;28;20032;-63
2023/04/19 05:28:03;;;;;;;32.83;23.05;;;10.50;99.90;;;;;;5054854;28;20373;-62
2023/04/19 05:30:28;;;;;;;30.52;22.63;;;10.50;99.90;;;;;;5054347;28;20223;-63
2023/04/19 05:32:54;;;;;;;30.48;23.73;;;10.50;99.90;;;;;;5054614;28;20382;-62
2023/04/19 05:35:20;;;;;;;34.42;23.95;;;10.50;99.90;;;;;;5054330;28;20025;-62
2023/04/19 05:37:45;;;;;;;33.13;23.73;;;10.50;99.90;;;;;;5054879;28;20049;-62
2023/04/19 05:40:12;;;;;;;33.33;25.00;;;10.50;99.90;;;;;;5054771;28;20029;-63
2023/04/19 05:42:38;;;;;;;33.42;23.08;;;10.50;99.90;;;;;;5054715;28;20369;-63
2023/04/19 05:45:06;;;;;;;30.65;23.88;;;10.50;99.90;;;;;;5054687;28;20053;-63
2023/04/19 05:47:31;;;;;;;29.33;23.13;;;10.50;99.90;;;;;;5053997;28;20160;-63
2023/04/19 05:49:57;;;;;;;32.60;24.02;;;10.50;99.90;;;;;;5054542;28;20104;-62
2023/04/19 05:52:23;;;;;;;34.78;24.80;;;10.50;99.90;;;;;;5053513;28;20036;-63
2023/04/19 05:54:48;;;;;;;32.92;24.48;;;10.50;99.90;;;;;;5054470;28;20025;-62
2023/04/19 05:57:14;;;;;;;32.13;24.52;;;10.50;99.90;;;;;;5052618;28;20440;-64
2023/04/19 05:59:40;;;;;;;32.78;24.58;;;10.60;99.90;;;;;;5054246;28;20056;-63
2023/04/19 06:02:06;;;;;;;40.90;24.08;;;10.60;99.90;;;;;;5054027;28;20033;-63
2023/04/19 06:04:31;;;;;;;31.83;23.33;;;10.60;99.90;;;;;;5053533;28;20465;-63
2023/04/19 06:06:57;;;;;;;35.15;24.33;;;10.60;99.90;;;;;;5054566;28;20063;-63
2023/04/19 06:09:23;;;;;;;31.52;24.17;;;10.60;99.90;;;;;;5053690;28;20033;-63
2023/04/19 06:11:48;;;;;;;32.33;25.15;;;10.60;99.90;;;;;;5052699;28;20112;-63
2023/04/19 06:14:14;;;;;;;33.55;24.88;;;10.60;99.90;;;;;;5053963;28;20025;-63
2023/04/19 06:16:40;;;;;;;33.45;25.00;;;10.60;99.90;;;;;;5053748;28;20036;-63
2023/04/19 06:19:09;;;;;;;31.83;24.05;;;10.60;99.90;;;;;;5053573;28;20470;-63
2023/04/19 06:21:34;;;;;;;30.77;24.80;;;10.60;99.90;;;;;;5053512;28;20021;-64
2023/04/19 06:24:00;;;;;;;32.33;24.48;;;10.70;99.90;;;;;;5053979;28;20027;-63
2023/04/19 06:26:26;;;;;;;30.38;23.92;;;10.70;99.90;;;;;;5053409;28;20044;-63
2023/04/19 06:28:51;;;;;;;30.90;24.15;;;10.70;99.90;;;;;;5053516;28;20040;-63
2023/04/19 06:31:17;;;;;;;33.03;24.75;;;10.70;99.90;;;;;;5053312;28;20107;-63
2023/04/19 06:33:43;;;;;;;32.33;24.30;;;10.70;99.90;;;;;;5053210;28;20068;-63
2023/04/19 06:36:09;;;;;;;33.95;23.95;;;10.70;99.90;;;;;;5053643;28;20035;-63
2023/04/19 06:38:37;;;;;;;33.00;25.42;;;10.70;99.90;;;;;;5053145;28;20036;-62
2023/04/19 06:41:03;;;;;;;34.80;25.27;;;10.70;99.90;;;;;;5053363;28;20021;-62
2023/04/19 06:43:29;;;;;;;32.03;24.45;;;10.70;99.90;;;;;;5052602;28;20029;-63
2023/04/19 06:45:58;;;;;;;30.98;24.58;;;10.70;99.90;;;;;;5052398;28;20377;-63
2023/04/19 06:48:25;;;;;;;30.75;24.55;;;10.70;99.90;;;;;;5052835;28;20031;-63
2023/04/19 06:50:50;;;;;;;34.15;25.48;;;10.70;99.90;;;;;;5053169;28;20454;-62
2023/04/19 06:53:16;;;;;;;31.85;25.45;;;10.70;99.90;;;;;;5053234;28;20043;-62
2023/04/19 06:55:41;;;;;;;36.33;24.23;;;10.70;99.90;;;;;;5052963;28;20060;-62
2023/04/19 06:58:09;;;;;;;35.67;25.02;;;10.70;99.90;;;;;;5053157;28;20060;-62
2023/04/19 07:00:35;;;;;;;32.55;23.98;;;10.70;99.90;;;;;;5052585;28;20024;-62
2023/04/19 07:03:01;;;;;;;37.00;25.60;;;10.60;99.90;;;;;;5052648;28;20025;-62
2023/04/19 07:05:27;;;;;;;35.08;25.27;;;10.60;99.90;;;;;;5052572;28;20427;-63
2023/04/19 07:07:53;;;;;;;37.03;26.05;;;10.60;99.90;;;;;;5050933;28;20021;-62
2023/04/19 07:10:18;;;;;;;33.63;25.80;;;10.60;99.90;;;;;;5051651;28;20037;-62
2023/04/19 07:12:44;;;;;;;32.20;25.20;;;10.60;99.90;;;;;;5053100;28;20025;-62
2023/04/19 07:15:10;;;;;;;35.58;25.60;;;10.60;99.90;;;;;;5052770;28;20356;-62
2023/04/19 07:17:36;;;;;;;34.92;25.83;;;10.50;99.90;;;;;;5052261;28;20022;-62
2023/04/19 07:20:04;;;;;;;33.30;24.23;;;10.50;99.90;;;;;;5052590;28;20114;-62
2023/04/19 07:22:29;;;;;;;34.15;25.10;;;10.50;99.90;;;;;;5052387;28;20487;-63
2023/04/19 07:24:55;;;;;;;32.58;24.13;;;10.50;99.90;;;;;;5051490;28;20024;-62
2023/04/19 07:27:21;;;;;;;32.88;24.58;;;10.50;99.90;;;;;;5051263;28;20108;-63
2023/04/19 07:29:46;;;;;;;33.33;25.50;;;10.50;99.90;;;;;;5052733;28;20029;-62
2023/04/19 07:32:14;;;;;;;32.10;24.05;;;10.50;99.90;;;;;;5052825;28;20029;-63
2023/04/19 07:34:41;;;;;;;35.03;24.83;;;10.50;99.90;;;;;;5052362;28;20040;-63
2023/04/19 07:37:07;;;;;;;30.30;22.90;;;10.50;99.90;;;;;;5051169;28;20079;-63
2023/04/19 07:39:33;;;;;;;30.60;22.63;;;10.50;99.90;;;;;;5052601;28;20029;-63
2023/04/19 07:42:00;;;;;;;28.38;22.13;;;10.50;99.90;;;;;;5052627;28;20183;-64
2023/04/19 07:44:26;;;;;;;32.85;22.00;;;10.50;99.90;;;;;;5051837;28;20103;-64
2023/04/19 07:46:51;;;;;;;27.67;20.73;;;10.50;99.90;;;;;;5051315;28;20025;-62
2023/04/19 07:49:17;;;;;;;23.88;18.90;;;10.50;99.90;;;;;;5052187;28;20033;-63
2023/04/19 07:51:43;;;;;;;25.50;19.75;;;10.50;99.90;;;;;;5052232;28;20467;-62
2023/04/19 07:54:09;;;;;;;25.10;20.73;;;10.50;99.90;;;;;;5052593;28;20051;-61
2023/04/19 07:56:35;;;;;;;24.95;18.65;;;10.50;99.90;;;;;;5052814;28;20029;-62
2023/04/19 07:59:00;;;;;;;22.15;17.80;;;10.50;99.90;;;;;;5056625;28;20116;-62
2023/04/19 08:01:26;;;;;;;27.13;18.58;;;10.50;99.90;;;;;;5056228;28;20438;-62
2023/04/19 08:03:51;;;;;;;23.50;16.90;;;10.50;99.90;;;;;;5057179;28;20362;-62
2023/04/19 08:06:17;;;;;;;20.75;15.55;;;10.60;99.90;;;;;;5056768;28;20466;-61
2023/04/19 08:08:43;;;;;;;19.48;15.93;;;10.60;99.90;;;;;;5057178;28;20029;-62
2023/04/19 08:11:08;;;;;;;20.75;15.93;;;10.60;99.90;;;;;;5058214;28;20036;-62
2023/04/19 08:13:34;;;;;;;22.80;14.98;;;10.60;99.90;;;;;;5056897;28;20040;-62
2023/04/19 08:16:00;;;;;;;26.17;15.65;;;10.60;99.90;;;;;;5056335;28;20065;-63
2023/04/19 08:18:26;;;;;;;20.08;15.07;;;10.70;99.90;;;;;;5056152;28;20033;-64
2023/04/19 08:20:52;;;;;;;19.83;15.52;;;10.70;99.90;;;;;;5056007;28;20104;-64
2023/04/19 08:23:18;;;;;;;22.15;15.15;;;10.70;99.90;;;;;;5056069;28;20534;-63
2023/04/19 08:25:44;;;;;;;20.15;15.43;;;10.70;99.90;;;;;;5055735;28;20335;-63
2023/04/19 08:28:11;;;;;;;20.58;15.55;;;10.70;99.90;;;;;;5055759;28;20017;-63
2023/04/19 08:30:37;;;;;;;19.30;14.85;;;10.80;99.90;;;;;;5055517;28;20091;-63
2023/04/19 08:33:04;;;;;;;20.25;14.50;;;10.80;99.90;;;;;;5056223;28;20493;-63
2023/04/19 08:35:29;;;;;;;21.60;15.95;;;10.80;99.90;;;;;;5055662;28;20105;-63
2023/04/19 08:37:55;;;;;;;18.75;13.77;;;10.80;99.90;;;;;;5055920;28;20060;-63
2023/04/19 08:40:21;;;;;;;21.02;14.93;;;10.90;99.90;;;;;;5055807;28;20037;-63
2023/04/19 08:42:46;;;;;;;19.52;14.45;;;10.90;99.90;;;;;;5054746;28;20096;-63
2023/04/19 08:45:15;;;;;;;19.20;13.90;;;10.90;99.90;;;;;;5055702;28;20045;-63
2023/04/19 08:47:40;;;;;;;23.02;14.82;;;11.00;99.90;;;;;;5055049;28;20029;-63
2023/04/19 08:50:07;;;;;;;18.55;13.82;;;10.90;99.90;;;;;;5055639;28;20025;-63
2023/04/19 08:52:35;;;;;;;16.33;13.70;;;11.00;99.90;;;;;;5055357;28;20032;-63
2023/04/19 08:55:03;;;;;;;18.20;13.45;;;11.00;99.90;;;;;;5055607;28;20028;-63
2023/04/19 08:57:30;;;;;;;16.85;12.63;;;11.00;99.90;;;;;;5055132;28;20025;-63
2023/04/19 08:59:56;;;;;;;16.70;11.75;;;11.00;99.90;;;;;;5055264;28;20099;-62
2023/04/19 09:02:23;;;;;;;16.00;12.05;;;11.00;99.90;;;;;;5055034;28;20449;-62
2023/04/19 09:04:48;;;;;;;14.07;10.85;;;11.00;99.90;;;;;;5054752;28;20466;-63
2023/04/19 09:07:27;;;;;;;15.93;12.07;;;11.00;99.90;;;;;;5054585;28;20104;-63
2023/04/19 09:10:06;;;;;;;14.63;10.82;;;11.00;99.90;;;;;;5055479;28;20116;-63
2023/04/19 09:12:33;;;;;;;15.15;10.38;;;11.00;99.90;;;;;;5054881;28;20033;-63
2023/04/19 09:15:00;;;;;;;16.77;11.55;;;11.00;99.90;;;;;;5055258;28;20458;-64
2023/04/19 09:17:26;;;;;;;14.52;10.65;;;11.00;99.90;;;;;;5055234;28;20032;-63
2023/04/19 09:19:51;;;;;;;12.02;8.48;;;11.10;99.90;;;;;;5054798;28;20354;-62
2023/04/19 09:22:17;;;;;;;12.40;8.85;;;11.10;99.90;;;;;;5054821;28;20556;-63
2023/04/19 09:24:43;;;;;;;12.43;8.43;;;11.10;99.90;;;;;;5054756;28;20029;-63
2023/04/19 09:27:12;;;;;;;11.90;8.77;;;11.10;99.90;;;;;;5055210;28;20094;-62
2023/04/19 09:29:37;;;;;;;11.00;8.02;;;11.10;99.90;;;;;;5057968;28;20060;-63
2023/04/19 09:32:03;;;;;;;11.93;8.90;;;11.00;99.90;;;;;;5058725;28;20029;-62
2023/04/19 09:34:29;;;;;;;11.55;8.77;;;11.00;99.90;;;;;;5058094;28;20376;-63
2023/04/19 09:36:55;;;;;;;10.18;7.85;;;11.00;99.90;;;;;;5055168;28;20381;-63
2023/04/19 09:39:47;;;;;;;9.60;8.07;;;11.10;99.90;;;;;;5057248;28;20049;-67
2023/04/19 09:42:13;;;;;;;9.95;7.97;;;11.10;99.90;;;;;;5052807;28;20358;-63
2023/04/19 09:44:39;;;;;;;11.77;7.93;;;11.10;99.90;;;;;;5054168;28;20136;-62
2023/04/19 09:47:24;;;;;;;11.88;9.48;;;11.20;99.90;;;;;;5054574;28;20438;-63
2023/04/19 09:50:09;;;;;;;11.25;7.78;;;11.30;99.90;;;;;;5054068;28;20555;-63
2023/04/19 09:52:35;;;;;;;9.18;7.80;;;11.30;99.90;;;;;;5054071;28;20040;-63
2023/04/19 09:55:03;;;;;;;9.70;7.00;;;11.40;99.90;;;;;;5054531;28;20028;-63
2023/04/19 09:57:30;;;;;;;8.35;6.82;;;11.40;99.90;;;;;;5054435;28;20035;-64
2023/04/19 09:59:57;;;;;;;12.50;7.93;;;11.50;99.90;;;;;;5054047;28;20036;-63
2023/04/19 10:02:24;;;;;;;10.32;7.85;;;11.60;99.90;;;;;;5054299;28;20051;-63
2023/04/19 10:04:52;;;;;;;12.60;7.63;;;11.60;99.90;;;;;;5053543;28;20035;-63
2023/04/19 10:07:18;;;;;;;11.00;8.55;;;11.60;99.90;;;;;;5054221;28;20029;-62
2023/04/19 10:09:46;;;;;;;8.82;7.35;;;11.60;99.90;;;;;;5053576;28;20114;-62
2023/04/19 10:12:14;;;;;;;10.32;8.05;;;11.70;99.90;;;;;;5054199;28;20091;-64
2023/04/19 10:14:41;;;;;;;11.27;8.63;;;11.70;99.90;;;;;;5053650;28;20075;-64
2023/04/19 10:17:07;;;;;;;10.57;8.60;;;11.70;99.90;;;;;;5054040;28;20485;-64
2023/04/19 10:19:36;;;;;;;11.65;8.30;;;11.70;99.90;;;;;;5052631;28;20033;-67
2023/04/19 10:22:05;;;;;;;10.27;8.38;;;11.70;99.90;;;;;;5053893;28;20432;-64
2023/04/19 10:24:32;;;;;;;10.35;7.95;;;11.80;99.90;;;;;;5053847;28;20056;-63
2023/04/19 10:27:10;;;;;;;8.20;7.28;;;11.80;99.90;;;;;;5053446;28;20029;-62
2023/04/19 10:29:55;;;;;;;9.52;7.93;;;11.90;99.90;;;;;;5053360;28;20037;-63
2023/04/19 10:32:21;;;;;;;9.90;7.38;;;12.00;99.90;;;;;;5053437;28;20033;-62
2023/04/19 10:34:46;;;;;;;10.93;8.77;;;12.00;99.90;;;;;;5053266;28;20021;-63
2023/04/19 10:37:15;;;;;;;9.45;7.55;;;12.10;99.90;;;;;;5053439;28;20028;-64
2023/04/19 10:39:44;;;;;;;9.52;7.00;;;12.10;99.90;;;;;;5053241;28;20040;-64
2023/04/19 10:42:11;;;;;;;11.88;7.70;;;12.00;99.90;;;;;;5053528;28;20086;-64
2023/04/19 10:44:37;;;;;;;10.65;8.40;;;12.00;99.90;;;;;;5053010;28;20113;-63
2023/04/19 10:47:04;;;;;;;10.25;7.53;;;12.00;99.90;;;;;;5053440;28;20025;-63
2023/04/19 10:49:30;;;;;;;10.25;8.13;;;12.00;99.90;;;;;;5053305;28;20122;-63
2023/04/19 10:51:59;;;;;;;10.10;8.10;;;12.00;99.90;;;;;;5052571;28;20068;-63
2023/04/19 10:54:37;;;;;;;9.65;7.47;;;12.00;99.90;;;;;;5052079;28;20025;-63
2023/04/19 10:57:07;;;;;;;8.70;7.38;;;12.10;99.90;;;;;;5052885;28;20028;-63
2023/04/19 10:59:35;;;;;;;12.23;8.77;;;12.10;99.90;;;;;;5051970;28;20082;-63
2023/04/19 11:02:20;;;;;;;10.27;8.23;;;12.10;99.90;;;;;;5052987;28;20387;-64
2023/04/19 11:04:49;;;;;;;9.65;7.65;;;12.20;99.90;;;;;;5053000;28;20033;-62
2023/04/19 11:07:17;;;;;;;9.77;7.68;;;12.30;99.90;;;;;;5053268;28;20021;-64
2023/04/19 11:09:46;;;;;;;9.02;7.28;;;12.30;99.90;;;;;;5052329;28;20079;-64
2023/04/19 11:12:17;;;;;;;8.50;6.10;;;12.30;99.90;;;;;;5053152;28;20036;-63
2023/04/19 11:14:44;;;;;;;6.90;5.43;;;12.30;99.90;;;;;;5052688;28;20021;-63
2023/04/19 11:17:15;;;;;;;5.93;5.20;;;12.30;99.90;;;;;;5052657;28;20025;-63
2023/04/19 11:19:41;;;;;;;;;;;12.30;99.90;;;;;;5052921;28;20033;-63
2023/04/19 11:22:07;;;;;;;8.43;6.97;;;12.30;99.90;;;;;;5052887;28;20253;-62
2023/04/19 11:24:34;;;;;;;7.15;5.82;;;12.30;99.90;;;;;;5052865;28;20033;-62
2023/04/19 11:27:00;;;;;;;7.53;5.78;;;12.30;99.90;;;;;;5052419;28;20071;-63
2023/04/19 11:29:25;;;;;;;7.82;6.20;;;12.30;99.90;;;;;;5052657;28;20050;-63
2023/04/19 11:31:51;;;;;;;8.10;6.07;;;12.20;99.90;;;;;;5052136;28;20032;-63
2023/04/19 11:34:22;;;;;;;8.98;6.20;;;12.20;99.90;;;;;;5052649;28;20086;-63
2023/04/19 11:36:51;;;;;;;10.27;7.20;;;12.30;99.90;;;;;;5052379;28;20033;-63
2023/04/19 11:39:17;;;;;;;7.55;6.30;;;12.30;99.90;;;;;;5052755;28;20069;-62
2023/04/19 11:41:43;;;;;;;8.88;6.80;;;12.30;99.90;;;;;;5052201;28;20025;-63
2023/04/19 11:44:27;;;;;;;9.75;7.30;;;12.30;99.90;;;;;;5052095;28;20397;-62
2023/04/19 11:47:02;;;;;;;10.15;7.00;;;12.30;99.90;;;;;;5052244;28;20021;-62
2023/04/19 11:49:29;;;;;;;10.20;6.93;;;12.30;99.90;;;;;;5052264;28;20441;-63
2023/04/19 11:52:04;;;;;;;11.50;7.78;;;12.30;99.90;;;;;;5052007;28;20036;-63
2023/04/19 11:54:30;;;;;;;10.10;7.97;;;12.30;99.90;;;;;;5051311;28;20021;-63
2023/04/19 11:57:04;;;;;;;11.07;7.47;;;12.40;99.90;;;;;;5052156;28;20462;-63
2023/04/19 11:59:31;;;;;;;10.73;8.00;;;12.40;99.90;;;;;;5052074;28;20073;-62
2023/04/19 12:02:04;;;;;;;11.75;8.27;;;12.40;99.90;;;;;;5050711;28;20085;-62
2023/04/19 12:04:30;;;;;;;10.45;8.00;;;12.40;99.90;;;;;;5052479;28;20025;-63
2023/04/19 12:06:58;;;;;;;12.95;8.63;;;12.50;99.90;;;;;;5051961;28;20074;-62
2023/04/19 12:09:24;;;;;;;12.10;8.85;;;12.50;99.90;;;;;;5052225;28;20142;-62
2023/04/19 12:11:50;;;;;;;11.88;8.95;;;12.50;99.90;;;;;;5051924;28;20488;-63
2023/04/19 12:14:21;;;;;;;11.18;8.30;;;12.50;99.90;;;;;;5052401;28;20025;-62
2023/04/19 12:17:06;;;;;;;;;;;12.40;99.90;;;;;;5052403;28;20114;-63
2023/04/19 12:19:37;;;;;;;10.88;7.88;;;12.40;99.90;;;;;;5052234;28;19904;-62
2023/04/19 12:22:18;;;;;;;10.55;7.68;;;12.40;99.90;;;;;;5051742;28;20401;-63
2023/04/19 12:24:44;;;;;;;13.48;7.40;;;12.30;99.90;;;;;;5051751;28;20029;-63
2023/04/19 12:27:10;;;;;;;10.13;6.47;;;12.20;99.90;;;;;;5052203;28;20032;-63
2023/04/19 12:29:37;;;;;;;7.53;6.03;;;12.20;99.90;;;;;;5051975;28;20401;-63